Time;durP1;ratioP1;P1;durP2;ratioP2;P2;SDS_P1;SDS_P2;PMS_P1;PMS_P2;Temp;Humidity;BMP_temperature;BMP_pressure;BME280_temperature;BME280_humidity;BME280_pressure;Samples;Min_cycle;Max_cycle;Signal;HPM_P1;HPM_P2
2022/04/28 00:00:53;;;;;;;11.85;7.00;;;;;;;;;;8396604;28;20040;-76
2022/04/28 00:04:57;;;;;;;17.73;7.28;;;;;;;;;;8396313;28;20048;-76
2022/04/28 00:08:59;;;;;;;10.82;6.68;;;;;;;;;;8396286;28;20075;-77
2022/04/28 00:13:02;;;;;;;11.85;6.18;;;;;;;;;;8396857;28;20498;-77
2022/04/28 00:17:05;;;;;;;11.88;6.20;;;;;;;;;;8396627;28;20537;-75
2022/04/28 00:21:09;;;;;;;9.95;6.00;;;;;;;;;;8396294;28;20040;-77
2022/04/28 00:25:12;;;;;;;10.35;6.03;;;;;;;;;;8396184;28;20064;-79
2022/04/28 00:29:15;;;;;;;11.15;5.93;;;;;;;;;;8396566;28;20501;-77
2022/04/28 00:33:17;;;;;;;8.63;5.40;;;;;;;;;;8400240;28;20138;-78
2022/04/28 00:37:21;;;;;;;10.25;6.38;;;;;;;;;;8402404;28;20412;-77
2022/04/28 00:41:24;;;;;;;10.98;6.43;;;;;;;;;;8402516;28;20048;-77
2022/04/28 00:45:26;;;;;;;11.82;6.28;;;;;;;;;;8402414;28;20045;-77
2022/04/28 00:53:53;;;;;;;9.48;5.75;;;;;;;;;;8401517;28;20036;-76
2022/04/28 00:57:55;;;;;;;12.75;5.18;;;;;;;;;;8402478;28;20059;-79
2022/04/28 01:01:58;;;;;;;9.80;5.82;;;;;;;;;;8401249;28;20051;-76
2022/04/28 01:06:01;;;;;;;10.40;5.50;;;;;;;;;;8401263;28;20048;-76
2022/04/28 01:10:06;;;;;;;11.35;5.43;;;;;;;;;;8401191;28;20052;-75
2022/04/28 01:14:09;;;;;;;12.23;6.07;;;;;;;;;;8401502;28;20056;-77
2022/04/28 01:18:12;;;;;;;10.00;5.63;;;;;;;;;;8401299;28;20051;-76
2022/04/28 01:22:15;;;;;;;9.95;5.68;;;;;;;;;;8400676;28;20052;-77
2022/04/28 01:26:19;;;;;;;7.88;5.18;;;;;;;;;;8400399;28;20052;-77
2022/04/28 01:30:22;;;;;;;9.15;5.40;;;;;;;;;;8400560;28;20048;-77
2022/04/28 01:34:24;;;;;;;14.50;5.68;;;;;;;;;;8400193;28;20059;-77
2022/04/28 01:38:28;;;;;;;7.95;5.03;;;;;;;;;;8400260;28;20048;-77
2022/04/28 01:42:32;;;;;;;9.20;5.35;;;;;;;;;;8399527;28;20045;-76
2022/04/28 01:46:34;;;;;;;9.43;5.10;;;;;;;;;;8400010;28;20040;-79
2022/04/28 01:50:37;;;;;;;10.73;5.50;;;;;;;;;;8400237;28;20499;-77
2022/04/28 01:54:58;;;;;;;11.77;6.10;;;;;;;;;;8399835;28;20036;-77
2022/04/28 01:59:01;;;;;;;10.73;5.63;;;;;;;;;;8399974;28;20040;-76
2022/04/28 02:03:03;;;;;;;9.25;5.32;;;;;;;;;;8399534;28;20055;-80
2022/04/28 02:07:11;;;;;;;10.50;5.93;;;;;;;;;;8399098;28;20151;-77
2022/04/28 02:11:22;;;;;;;9.35;5.35;;;;;;;;;;8399653;28;20062;-80
2022/04/28 02:15:33;;;;;;;13.45;5.72;;;;;;;;;;8398938;28;20055;-76
2022/04/28 02:19:36;;;;;;;10.70;6.15;;;;;;;;;;8398851;28;20052;-77
2022/04/28 02:23:38;;;;;;;10.52;5.88;;;;;;;;;;8398756;28;20462;-78
2022/04/28 02:27:42;;;;;;;12.88;6.53;;;;;;;;;;8398237;28;20062;-76
2022/04/28 02:31:45;;;;;;;11.63;6.05;;;;;;;;;;8398618;28;20180;-77
2022/04/28 02:35:47;;;;;;;11.90;6.45;;;;;;;;;;8398782;28;20068;-78
2022/04/28 02:39:50;;;;;;;15.80;7.93;;;;;;;;;;8398298;28;20072;-77
2022/04/28 02:43:54;;;;;;;13.52;7.55;;;;;;;;;;8398544;28;20544;-76
2022/04/28 02:47:57;;;;;;;14.60;6.55;;;;;;;;;;8398070;28;20411;-75
2022/04/28 02:51:59;;;;;;;13.85;7.50;;;;;;;;;;8398460;28;20090;-76
2022/04/28 02:56:02;;;;;;;12.93;8.15;;;;;;;;;;8397195;28;20045;-77
2022/04/28 03:00:07;;;;;;;14.27;7.88;;;;;;;;;;8398414;28;20385;-77
2022/04/28 03:04:10;;;;;;;14.25;8.90;;;;;;;;;;8398011;28;20052;-76
2022/04/28 03:12:36;;;;;;;15.52;7.50;;;;;;;;;;8397400;28;20044;-77
2022/04/28 03:16:40;;;;;;;18.77;10.35;;;;;;;;;;8397313;28;20086;-76
2022/04/28 03:20:43;;;;;;;10.70;6.30;;;;;;;;;;8398017;28;20161;-77
2022/04/28 03:24:45;;;;;;;15.77;8.15;;;;;;;;;;8397641;28;20049;-81
2022/04/28 03:28:48;;;;;;;9.90;6.72;;;;;;;;;;8396903;28;20052;-77
2022/04/28 03:32:52;;;;;;;17.73;9.35;;;;;;;;;;8396879;28;20045;-77
2022/04/28 03:36:55;;;;;;;16.88;7.30;;;;;;;;;;8396889;28;20053;-76
2022/04/28 03:40:57;;;;;;;10.75;5.93;;;;;;;;;;8397466;28;20472;-77
2022/04/28 03:45:00;;;;;;;12.00;7.10;;;;;;;;;;8396779;28;20044;-77
2022/04/28 03:49:04;;;;;;;19.60;11.77;;;;;;;;;;8396847;28;20052;-76
2022/04/28 03:53:07;;;;;;;13.68;6.38;;;;;;;;;;8396794;28;20059;-77
2022/04/28 03:57:10;;;;;;;16.20;7.43;;;;;;;;;;8397024;28;20049;-78
2022/04/28 04:01:13;;;;;;;14.27;7.70;;;;;;;;;;8396733;28;20040;-77
2022/04/28 04:05:17;;;;;;;13.38;5.97;;;;;;;;;;8396996;28;20412;-76
2022/04/28 04:09:20;;;;;;;12.20;5.57;;;;;;;;;;8402746;28;20055;-76
2022/04/28 04:13:23;;;;;;;17.95;6.53;;;;;;;;;;8403043;28;20051;-78
2022/04/28 04:17:26;;;;;;;12.50;6.70;;;;;;;;;;8403427;28;20044;-77
2022/04/28 04:21:30;;;;;;;16.15;8.18;;;;;;;;;;8408064;28;20056;-77
2022/04/28 04:25:33;;;;;;;22.45;10.10;;;;;;;;;;8414958;28;20048;-77
2022/04/28 04:29:35;;;;;;;21.02;12.50;;;;;;;;;;8416224;28;20045;-75
2022/04/28 04:33:38;;;;;;;20.50;12.32;;;;;;;;;;8420206;28;20044;-77
2022/04/28 04:37:42;;;;;;;17.45;10.32;;;;;;;;;;8405665;28;20131;-80
2022/04/28 04:41:45;;;;;;;20.73;11.27;;;;;;;;;;8402984;28;20543;-77
2022/04/28 04:45:48;;;;;;;21.88;11.45;;;;;;;;;;8402973;28;20044;-77
2022/04/28 04:49:51;;;;;;;25.20;14.90;;;;;;;;;;8402709;28;20040;-76
2022/04/28 04:53:56;;;;;;;20.23;12.27;;;;;;;;;;8402462;28;20079;-77
2022/04/28 04:57:59;;;;;;;24.60;12.50;;;;;;;;;;8401468;28;20135;-77
2022/04/28 05:02:01;;;;;;;14.82;8.80;;;;;;;;;;8401877;28;20047;-77
2022/04/28 05:06:04;;;;;;;16.70;9.70;;;;;;;;;;8401117;28;20049;-77
2022/04/28 05:10:09;;;;;;;21.23;10.43;;;;;;;;;;8401501;28;20449;-77
2022/04/28 05:14:13;;;;;;;14.60;7.88;;;;;;;;;;8401528;28;20470;-77
2022/04/28 05:18:15;;;;;;;15.18;8.35;;;;;;;;;;8399623;28;20090;-76
2022/04/28 05:22:22;;;;;;;15.60;8.90;;;;;;;;;;8401174;28;20480;-76
2022/04/28 05:26:27;;;;;;;15.57;9.68;;;;;;;;;;8400691;28;20075;-75
2022/04/28 05:30:30;;;;;;;13.85;10.15;;;;;;;;;;8400592;28;20047;-77
2022/04/28 05:34:32;;;;;;;20.00;11.52;;;;;;;;;;8400287;28;20412;-77
2022/04/28 05:38:35;;;;;;;18.17;11.40;;;;;;;;;;8400130;28;20078;-76
2022/04/28 05:47:00;;;;;;;15.07;8.98;;;;;;;;;;8400499;28;20473;-76
2022/04/28 05:51:03;;;;;;;13.95;8.20;;;;;;;;;;8399859;28;20476;-75
2022/04/28 05:55:06;;;;;;;14.85;9.52;;;;;;;;;;8399762;28;20044;-76
2022/04/28 05:59:11;;;;;;;14.00;8.23;;;;;;;;;;8400110;28;20149;-77
2022/04/28 06:03:14;;;;;;;13.45;8.75;;;;;;;;;;8399483;28;20506;-76
2022/04/28 06:07:17;;;;;;;11.73;7.10;;;;;;;;;;8367254;28;20042;-75
2022/04/28 06:11:20;;;;;;;9.40;6.43;;;;;;;;;;8377236;28;20072;-78
2022/04/28 06:15:25;;;;;;;12.90;6.90;;;;;;;;;;8362877;28;20049;-77
2022/04/28 06:19:28;;;;;;;11.82;6.47;;;;;;;;;;8364532;28;20052;-76
2022/04/28 06:23:31;;;;;;;10.82;6.32;;;;;;;;;;8365758;28;20080;-75
2022/04/28 06:27:34;;;;;;;10.50;6.53;;;;;;;;;;8365313;28;20049;-78
2022/04/28 06:31:38;;;;;;;10.88;5.68;;;;;;;;;;8365737;28;20049;-77
2022/04/28 06:35:41;;;;;;;12.20;6.70;;;;;;;;;;8365164;28;20165;-76
2022/04/28 06:39:44;;;;;;;7.78;4.68;;;;;;;;;;8365182;28;20045;-76
2022/04/28 06:43:47;;;;;;;11.27;6.25;;;;;;;;;;8365122;28;20414;-77
2022/04/28 06:47:51;;;;;;;7.20;4.43;;;;;;;;;;8364950;28;20059;-78
2022/04/28 06:51:54;;;;;;;5.28;3.40;;;;;;;;;;8365003;28;20045;-78
2022/04/28 06:55:57;;;;;;;8.88;3.95;;;;;;;;;;8364719;28;20450;-77
2022/04/28 07:00:00;;;;;;;7.28;3.70;;;;;;;;;;8364596;28;20103;-77
2022/04/28 07:04:05;;;;;;;8.18;4.70;;;;;;;;;;8386691;28;20412;-78
2022/04/28 07:08:08;;;;;;;12.68;6.07;;;;;;;;;;8394500;28;20040;-81
2022/04/28 07:12:12;;;;;;;14.23;6.28;;;;;;;;;;8396909;28;20041;-77
2022/04/28 07:16:15;;;;;;;12.75;5.38;;;;;;;;;;8371766;28;20476;-78
2022/04/28 07:20:20;;;;;;;9.85;5.45;;;;;;;;;;8363926;28;20060;-76
2022/04/28 07:24:23;;;;;;;10.77;5.30;;;;;;;;;;8364206;28;20049;-76
2022/04/28 07:28:26;;;;;;;13.27;7.28;;;;;;;;;;8363648;28;20493;-76
2022/04/28 07:32:29;;;;;;;9.38;4.85;;;;;;;;;;8364284;28;20053;-78
2022/04/28 07:36:33;;;;;;;9.93;4.95;;;;;;;;;;8364072;28;20045;-76
2022/04/28 07:40:37;;;;;;;8.77;4.30;;;;;;;;;;8363540;28;20052;-77
2022/04/28 07:44:39;;;;;;;7.60;3.67;;;;;;;;;;8363558;28;20059;-78
2022/04/28 07:48:42;;;;;;;5.63;3.80;;;;;;;;;;8363284;28;20045;-76
2022/04/28 07:52:46;;;;;;;6.20;3.80;;;;;;;;;;8363962;28;20041;-76
2022/04/28 07:56:49;;;;;;;6.10;3.97;;;;;;;;;;8363758;28;20045;-76
2022/04/28 08:00:52;;;;;;;5.57;3.25;;;;;;;;;;8363169;28;20049;-76
2022/04/28 08:04:55;;;;;;;5.57;3.00;;;;;;;;;;8363174;28;20045;-76
2022/04/28 08:08:59;;;;;;;4.88;2.70;;;;;;;;;;8363121;28;20053;-77
2022/04/28 08:13:02;;;;;;;6.00;2.80;;;;;;;;;;8363187;28;20041;-77
2022/04/28 08:17:05;;;;;;;6.03;3.30;;;;;;;;;;8363476;28;20053;-77
2022/04/28 08:21:09;;;;;;;8.05;3.08;;;;;;;;;;8363463;28;20056;-77
2022/04/28 08:25:13;;;;;;;5.47;2.95;;;;;;;;;;8362691;28;20140;-76
2022/04/28 08:29:16;;;;;;;4.32;2.90;;;;;;;;;;8362878;28;20056;-78
2022/04/28 08:33:19;;;;;;;7.65;2.92;;;;;;;;;;8363224;28;20476;-76
2022/04/28 08:37:22;;;;;;;5.55;3.05;;;;;;;;;;8362638;28;20071;-76
2022/04/28 08:41:33;;;;;;;5.88;2.58;;;;;;;;;;8362897;28;20098;-76
2022/04/28 08:46:50;;;;;;;4.28;2.83;;;;;;;;;;8362819;28;20044;-76
2022/04/28 08:50:03;;;;;;;5.57;2.63;;;;;;;;;;8362311;28;20061;-75
2022/04/28 08:54:07;;;;;;;5.47;3.22;;;;;;;;;;8364705;28;20049;-75
2022/04/28 08:58:11;;;;;;;5.00;2.90;;;;;;;;;;8368284;28;20140;-75
2022/04/28 09:02:15;;;;;;;4.95;3.30;;;;;;;;;;8368096;28;20053;-76
2022/04/28 09:06:20;;;;;;;3.42;2.30;;;;;;;;;;8367954;28;20080;-76
2022/04/28 09:10:30;;;;;;;5.95;3.25;;;;;;;;;;8368468;28;20059;-76
2022/04/28 09:14:34;;;;;;;5.13;3.33;;;;;;;;;;8368371;28;20500;-76
2022/04/28 09:18:37;;;;;;;7.03;3.60;;;;;;;;;;8367611;28;20079;-75
2022/04/28 09:22:43;;;;;;;5.38;3.20;;;;;;;;;;8368089;28;20041;-76
2022/04/28 09:26:46;;;;;;;5.90;3.47;;;;;;;;;;8367381;28;20098;-75
2022/04/28 09:30:51;;;;;;;8.57;3.95;;;;;;;;;;8367778;28;20045;-76
2022/04/28 09:34:55;;;;;;;6.75;3.70;;;;;;;;;;8367648;28;20044;-76
2022/04/28 09:38:57;;;;;;;6.63;4.03;;;;;;;;;;8367432;28;20095;-76
2022/04/28 09:43:00;;;;;;;7.85;4.72;;;;;;;;;;8367125;28;20479;-76
2022/04/28 09:47:06;;;;;;;7.53;4.68;;;;;;;;;;8366869;28;20091;-76
2022/04/28 09:51:11;;;;;;;8.82;4.78;;;;;;;;;;8366723;28;20045;-76
2022/04/28 09:55:17;;;;;;;7.13;4.30;;;;;;;;;;8366557;28;20118;-77
2022/04/28 09:59:21;;;;;;;9.48;4.45;;;;;;;;;;8366991;28;20125;-75
2022/04/28 10:03:26;;;;;;;7.13;4.88;;;;;;;;;;8366079;28;20056;-82
2022/04/28 10:07:30;;;;;;;9.20;4.50;;;;;;;;;;8365913;28;20041;-79
2022/04/28 10:11:33;;;;;;;9.07;5.35;;;;;;;;;;8366131;28;20045;-75
2022/04/28 10:15:37;;;;;;;7.90;4.30;;;;;;;;;;8366007;28;20041;-75
2022/04/28 10:19:46;;;;;;;7.95;4.68;;;;;;;;;;8365782;28;20057;-76
2022/04/28 10:33:00;;;;;;;8.32;4.72;;;;;;;;;;8328659;28;20056;-76
2022/04/28 10:37:06;;;;;;;3.20;2.22;;;;;;;;;;8360151;28;20550;-75
2022/04/28 10:41:10;;;;;;;6.13;3.40;;;;;;;;;;8398429;28;20502;-75
2022/04/28 10:45:20;;;;;;;7.63;3.90;;;;;;;;;;8398180;28;20045;-76
2022/04/28 10:49:25;;;;;;;13.07;4.60;;;;;;;;;;8398032;28;20049;-76
2022/04/28 10:53:29;;;;;;;7.97;4.50;;;;;;;;;;8398285;28;20714;-75
2022/04/28 10:57:34;;;;;;;7.45;4.50;;;;;;;;;;8398220;28;20511;-78
2022/04/28 11:01:38;;;;;;;9.10;4.50;;;;;;;;;;8397972;28;20106;-76
2022/04/28 11:05:42;;;;;;;10.63;4.28;;;;;;;;;;8397922;28;20056;-76
2022/04/28 11:09:55;;;;;;;10.07;3.72;;;;;;;;;;8397392;28;20090;-76
2022/04/28 11:14:00;;;;;;;6.68;3.97;;;;;;;;;;8397237;28;20067;-75
2022/04/28 11:18:04;;;;;;;7.63;5.38;;;;;;;;;;8396329;28;20045;-75
2022/04/28 11:22:07;;;;;;;8.45;4.95;;;;;;;;;;8397674;28;20505;-75
2022/04/28 11:26:12;;;;;;;8.30;4.68;;;;;;;;;;8396847;28;20577;-76
2022/04/28 11:30:16;;;;;;;10.60;5.47;;;;;;;;;;8397475;28;20045;-78
2022/04/28 11:34:19;;;;;;;13.13;5.35;;;;;;;;;;8397118;28;20041;-76
2022/04/28 11:38:26;;;;;;;8.95;5.13;;;;;;;;;;8397363;28;20048;-75
2022/04/28 11:42:30;;;;;;;11.05;5.20;;;;;;;;;;8396857;28;20052;-76
2022/04/28 11:46:34;;;;;;;7.47;4.82;;;;;;;;;;8397059;28;20480;-76
2022/04/28 11:50:37;;;;;;;7.03;4.72;;;;;;;;;;8396482;28;20048;-75
2022/04/28 11:54:40;;;;;;;14.57;5.22;;;;;;;;;;8396152;28;20495;-76
2022/04/28 11:58:48;;;;;;;8.68;4.60;;;;;;;;;;8396406;28;20076;-76
2022/04/28 12:02:52;;;;;;;6.38;3.88;;;;;;;;;;8395791;28;20060;-77
2022/04/28 12:06:54;;;;;;;7.38;3.80;;;;;;;;;;8393942;28;20553;-76
2022/04/28 12:15:20;;;;;;;7.33;4.20;;;;;;;;;;8394989;28;20045;-78
2022/04/28 12:19:25;;;;;;;6.88;4.35;;;;;;;;;;8366380;28;20048;-77
2022/04/28 12:23:29;;;;;;;7.55;4.50;;;;;;;;;;8361363;28;20099;-77
2022/04/28 12:27:40;;;;;;;8.88;4.97;;;;;;;;;;8362470;28;20511;-77
2022/04/28 12:31:45;;;;;;;7.77;4.40;;;;;;;;;;8369270;28;20048;-77
2022/04/28 12:35:48;;;;;;;6.65;4.50;;;;;;;;;;8369062;28;20045;-79
2022/04/28 12:40:02;;;;;;;7.68;4.45;;;;;;;;;;8369492;28;20492;-76
2022/04/28 12:44:07;;;;;;;6.93;3.88;;;;;;;;;;8368907;28;20045;-75
2022/04/28 12:48:25;;;;;;;6.60;4.32;;;;;;;;;;8368480;28;20072;-76
2022/04/28 12:52:30;;;;;;;8.90;4.22;;;;;;;;;;8368605;28;20052;-76
2022/04/28 12:56:34;;;;;;;10.48;4.47;;;;;;;;;;8368911;28;20056;-77
2022/04/28 13:00:39;;;;;;;5.93;4.18;;;;;;;;;;8368251;28;20094;-75
2022/04/28 13:04:43;;;;;;;6.95;3.95;;;;;;;;;;8368240;28;20080;-75
2022/04/28 13:08:46;;;;;;;9.75;5.65;;;;;;;;;;8368442;28;20049;-78
2022/04/28 13:12:49;;;;;;;7.03;4.30;;;;;;;;;;8371615;28;20048;-76
2022/04/28 13:16:55;;;;;;;7.97;4.65;;;;;;;;;;8397071;28;20483;-76
2022/04/28 13:21:00;;;;;;;11.25;6.25;;;;;;;;;;8395745;28;20127;-76
2022/04/28 13:25:06;;;;;;;11.43;7.18;;;;;;;;;;8395842;28;20098;-76
2022/04/28 13:29:10;;;;;;;8.05;5.40;;;;;;;;;;8395037;28;20067;-76
2022/04/28 13:33:14;;;;;;;8.32;4.97;;;;;;;;;;8395890;28;20044;-76
2022/04/28 13:37:21;;;;;;;8.07;5.07;;;;;;;;;;8393478;28;20090;-76
2022/04/28 13:41:31;;;;;;;10.77;5.30;;;;;;;;;;8387014;28;20040;-75
2022/04/28 13:45:36;;;;;;;12.75;7.50;;;;;;;;;;8385369;28;20442;-77
2022/04/28 13:49:39;;;;;;;9.50;5.82;;;;;;;;;;8395097;28;20067;-75
2022/04/28 13:53:45;;;;;;;8.50;5.65;;;;;;;;;;8395209;28;20056;-77
2022/04/28 13:57:55;;;;;;;10.38;6.22;;;;;;;;;;8394564;28;20106;-77
2022/04/28 14:02:03;;;;;;;7.32;5.07;;;;;;;;;;8394606;28;20056;-77
2022/04/28 14:06:11;;;;;;;8.52;4.70;;;;;;;;;;8394519;28;20048;-81
2022/04/28 14:10:21;;;;;;;9.55;5.25;;;;;;;;;;8394984;28;20460;-76
2022/04/28 14:14:27;;;;;;;8.18;4.35;;;;;;;;;;8394589;28;20078;-77
2022/04/28 14:18:35;;;;;;;7.50;4.65;;;;;;;;;;8393851;28;20076;-77
2022/04/28 14:22:44;;;;;;;8.27;4.40;;;;;;;;;;8394805;28;20490;-78
2022/04/28 14:26:54;;;;;;;9.32;5.05;;;;;;;;;;8393570;28;20056;-79
2022/04/28 14:30:57;;;;;;;8.70;4.82;;;;;;;;;;8409021;28;20051;-77
2022/04/28 14:35:01;;;;;;;6.53;4.10;;;;;;;;;;8427457;28;20055;-80
2022/04/28 14:39:05;;;;;;;7.72;3.67;;;;;;;;;;8427227;28;20581;-81
2022/04/28 14:43:09;;;;;;;7.10;4.00;;;;;;;;;;8427758;28;20438;-77
2022/04/28 14:47:12;;;;;;;8.18;3.90;;;;;;;;;;8427726;28;20044;-83
2022/04/28 14:55:37;;;;;;;6.25;3.72;;;;;;;;;;8393546;28;20048;-78
2022/04/28 14:59:41;;;;;;;6.57;4.07;;;;;;;;;;8393236;28;20492;-83
2022/04/28 15:03:45;;;;;;;17.95;9.60;;;;;;;;;;8393119;28;20052;-81
2022/04/28 15:07:48;;;;;;;7.82;4.78;;;;;;;;;;8392745;28;20044;-80
2022/04/28 15:11:51;;;;;;;18.55;8.45;;;;;;;;;;8393544;28;20044;-77
2022/04/28 15:15:56;;;;;;;8.25;4.85;;;;;;;;;;8393613;28;20484;-79
2022/04/28 15:20:00;;;;;;;9.02;5.15;;;;;;;;;;8392810;28;20055;-77
2022/04/28 15:24:03;;;;;;;6.32;4.15;;;;;;;;;;8392513;28;20048;-76
2022/04/28 15:28:06;;;;;;;9.70;6.35;;;;;;;;;;8392578;28;20056;-77
2022/04/28 15:32:14;;;;;;;7.57;5.32;;;;;;;;;;8393045;28;20057;-77
2022/04/28 15:36:21;;;;;;;10.43;6.85;;;;;;;;;;8425967;28;20619;-78
2022/04/28 15:40:25;;;;;;;7.72;4.32;;;;;;;;;;8426297;28;20052;-78
2022/04/28 15:44:29;;;;;;;8.27;4.55;;;;;;;;;;8391120;28;20500;-78
2022/04/28 15:48:36;;;;;;;41.95;25.55;;;;;;;;;;8376491;28;20048;-74
2022/04/28 15:52:50;;;;;;;9.13;4.57;;;;;;;;;;8392277;28;20072;-79
2022/04/28 15:56:58;;;;;;;8.60;5.13;;;;;;;;;;8391859;28;20147;-80
2022/04/28 16:01:03;;;;;;;7.32;4.80;;;;;;;;;;8391118;28;20059;-80
2022/04/28 16:05:16;;;;;;;9.45;5.10;;;;;;;;;;8398092;28;20044;-77
2022/04/28 16:09:28;;;;;;;11.27;7.25;;;;;;;;;;8399024;28;20516;-77
2022/04/28 16:13:34;;;;;;;8.18;4.03;;;;;;;;;;8398401;28;20052;-80
2022/04/28 16:17:39;;;;;;;7.28;4.68;;;;;;;;;;8398429;28;20048;-80
2022/04/28 16:21:53;;;;;;;21.83;10.95;;;;;;;;;;8412013;28;20066;-78
2022/04/28 16:26:20;;;;;;;58.50;31.60;;;;;;;;;;8429392;28;20056;-79
2022/04/28 16:30:36;;;;;;;21.67;17.10;;;;;;;;;;8431542;28;20051;-77
2022/04/28 16:35:06;;;;;;;19.85;14.05;;;;;;;;;;8431679;28;20093;-79
2022/04/28 16:39:26;;;;;;;62.38;37.90;;;;;;;;;;8430992;28;20044;-76
2022/04/28 16:44:25;;;;;;;13.02;7.75;;;;;;;;;;8431317;28;20518;-80
2022/04/28 16:48:36;;;;;;;15.75;8.95;;;;;;;;;;8409989;28;20060;-78
2022/04/28 16:52:40;;;;;;;15.98;9.05;;;;;;;;;;8397577;28;20055;-78
2022/04/28 16:56:45;;;;;;;14.05;7.80;;;;;;;;;;8396915;28;20044;-79
2022/04/28 17:00:48;;;;;;;11.00;8.15;;;;;;;;;;8396712;28;20055;-80
2022/04/28 17:04:51;;;;;;;20.58;15.65;;;;;;;;;;8396814;28;20462;-79
2022/04/28 17:08:55;;;;;;;13.85;8.88;;;;;;;;;;8396951;28;20049;-78
2022/04/28 17:13:01;;;;;;;20.85;14.45;;;;;;;;;;8386240;28;20087;-76
2022/04/28 17:17:05;;;;;;;24.35;16.17;;;;;;;;;;8382229;28;20079;-77
2022/04/28 17:21:10;;;;;;;27.90;15.68;;;;;;;;;;8390228;28;20495;-78
2022/04/28 17:25:14;;;;;;;36.38;16.42;;;;;;;;;;8375490;28;20041;-79
2022/04/28 17:29:22;;;;;;;73.45;29.42;;;;;;;;;;8396562;28;20060;-77
2022/04/28 17:33:26;;;;;;;11.02;7.00;;;;;;;;;;8395016;28;20411;-78
2022/04/28 17:37:29;;;;;;;10.05;6.70;;;;;;;;;;8384123;28;20056;-78
2022/04/28 17:41:34;;;;;;;30.42;20.17;;;;;;;;;;8386714;28;20591;-80
2022/04/28 17:45:39;;;;;;;45.40;25.65;;;;;;;;;;8394183;28;20106;-79
2022/04/28 17:49:43;;;;;;;61.30;28.17;;;;;;;;;;8395267;28;20044;-79
2022/04/28 17:53:46;;;;;;;38.00;21.30;;;;;;;;;;8395156;28;20052;-80
2022/04/28 18:02:13;;;;;;;31.90;18.67;;;;;;;;;;8362133;28;20049;-79
2022/04/28 18:06:16;;;;;;;63.63;32.70;;;;;;;;;;8362358;28;20055;-78
2022/04/28 18:10:21;;;;;;;111.30;54.78;;;;;;;;;;8376150;28;20048;-78
2022/04/28 18:14:26;;;;;;;199.65;85.43;;;;;;;;;;8388941;28;20199;-77
2022/04/28 18:18:32;;;;;;;20.80;12.98;;;;;;;;;;8394693;28;20098;-79
2022/04/28 18:22:36;;;;;;;17.40;10.48;;;;;;;;;;8374978;28;20056;-76
2022/04/28 18:26:42;;;;;;;33.30;21.02;;;;;;;;;;8360553;28;20151;-79
2022/04/28 18:30:45;;;;;;;45.47;24.17;;;;;;;;;;8361198;28;20480;-78
2022/04/28 18:34:50;;;;;;;22.25;11.63;;;;;;;;;;8360699;28;20053;-77
2022/04/28 18:47:36;;;;;;;17.65;9.13;;;;;;;;;;8381101;28;20045;-76
2022/04/28 18:51:42;;;;;;;33.17;22.88;;;;;;;;;;8382698;28;20045;-77
2022/04/28 18:55:48;;;;;;;30.40;17.15;;;;;;;;;;8382771;28;20049;-77
2022/04/28 18:59:53;;;;;;;22.55;13.10;;;;;;;;;;8384144;28;20508;-78
2022/04/28 19:04:01;;;;;;;39.63;27.08;;;;;;;;;;8381305;28;20048;-77
2022/04/28 19:08:11;;;;;;;57.67;28.23;;;;;;;;;;8369050;28;20048;-76
2022/04/28 19:12:18;;;;;;;23.97;15.83;;;;;;;;;;8387242;28;20396;-76
2022/04/28 19:16:22;;;;;;;26.83;16.33;;;;;;;;;;8394021;28;20404;-76
2022/04/28 19:20:26;;;;;;;21.17;14.18;;;;;;;;;;8392893;28;20408;-78
2022/04/28 19:24:36;;;;;;;27.85;16.98;;;;;;;;;;8387678;28;20056;-77
2022/04/28 19:28:45;;;;;;;24.30;16.50;;;;;;;;;;8381540;28;20132;-77
2022/04/28 19:32:51;;;;;;;120.97;59.10;;;;;;;;;;8379662;28;20494;-76
2022/04/28 19:36:57;;;;;;;35.15;21.45;;;;;;;;;;8383879;28;20124;-77
2022/04/28 19:41:02;;;;;;;23.20;14.93;;;;;;;;;;8386213;28;20055;-77
2022/04/28 19:45:12;;;;;;;26.75;15.52;;;;;;;;;;8383536;28;20068;-76
2022/04/28 19:49:15;;;;;;;35.75;21.35;;;;;;;;;;8381551;28;20050;-76
2022/04/28 19:53:19;;;;;;;22.95;14.55;;;;;;;;;;8379451;28;20048;-76
2022/04/28 19:57:24;;;;;;;25.77;16.58;;;;;;;;;;8381292;28;20098;-76
2022/04/28 20:01:28;;;;;;;25.33;14.65;;;;;;;;;;8379323;28;20041;-76
2022/04/28 20:05:32;;;;;;;89.38;41.28;;;;;;;;;;8386110;28;20416;-76
2022/04/28 20:09:43;;;;;;;110.63;49.58;;;;;;;;;;8378804;28;20491;-78
2022/04/28 20:13:50;;;;;;;43.67;23.80;;;;;;;;;;8378079;28;20049;-77
2022/04/28 20:17:58;;;;;;;34.15;20.50;;;;;;;;;;8376566;28;20049;-77
2022/04/28 20:27:03;;;;;;;28.00;18.08;;;;;;;;;;8378073;28;20504;-76
2022/04/28 20:31:38;;;;;;;25.05;18.20;;;;;;;;;;8385554;28;20500;-77
2022/04/28 20:35:46;;;;;;;23.23;15.45;;;;;;;;;;8389760;28;20098;-77
2022/04/28 20:39:57;;;;;;;25.67;16.20;;;;;;;;;;8382987;28;20040;-79
2022/04/28 20:44:12;;;;;;;36.55;26.02;;;;;;;;;;8377831;28;20045;-76
2022/04/28 20:48:27;;;;;;;36.63;24.57;;;;;;;;;;8380036;28;20052;-78
2022/04/28 20:52:40;;;;;;;33.45;23.75;;;;;;;;;;8382617;28;20065;-77
2022/04/28 20:56:45;;;;;;;35.65;18.27;;;;;;;;;;8387262;28;20052;-76
2022/04/28 21:00:53;;;;;;;26.10;16.83;;;;;;;;;;8380428;28;20049;-76
2022/04/28 21:05:03;;;;;;;29.45;15.82;;;;;;;;;;8382006;28;20056;-77
2022/04/28 21:09:07;;;;;;;32.70;18.35;;;;;;;;;;8381386;28;20045;-77
2022/04/28 21:13:11;;;;;;;44.42;25.02;;;;;;;;;;8368012;28;20048;-76
2022/04/28 21:17:14;;;;;;;46.90;24.88;;;;;;;;;;8367996;28;20045;-77
2022/04/28 21:21:23;;;;;;;35.58;23.02;;;;;;;;;;8367706;28;20069;-80
2022/04/28 21:25:30;;;;;;;39.13;24.15;;;;;;;;;;8398892;28;20067;-77
2022/04/28 21:29:34;;;;;;;41.92;22.38;;;;;;;;;;8400621;28;20048;-78
2022/04/28 21:33:38;;;;;;;30.77;19.88;;;;;;;;;;8400997;28;20468;-77
2022/04/28 21:37:43;;;;;;;31.55;19.23;;;;;;;;;;8399555;28;20049;-76
2022/04/28 21:41:45;;;;;;;33.80;19.70;;;;;;;;;;8400661;28;20085;-77
2022/04/28 21:45:49;;;;;;;28.85;17.10;;;;;;;;;;8400174;28;20049;-76
2022/04/28 21:49:52;;;;;;;27.40;16.58;;;;;;;;;;8400431;28;20067;-76
2022/04/28 21:53:56;;;;;;;27.52;15.52;;;;;;;;;;8398880;28;20054;-77
2022/04/28 21:57:59;;;;;;;36.90;19.90;;;;;;;;;;8399774;28;20446;-76
2022/04/28 22:02:02;;;;;;;42.67;24.45;;;;;;;;;;8399251;28;20125;-77
2022/04/28 22:14:47;;;;;;;23.77;14.90;;;;;;;;;;8398295;28;20099;-76
2022/04/28 22:18:50;;;;;;;23.20;15.40;;;;;;;;;;8399556;28;20053;-78
2022/04/28 22:22:53;;;;;;;25.40;15.13;;;;;;;;;;8399050;28;20068;-74
2022/04/28 22:26:58;;;;;;;23.75;14.15;;;;;;;;;;8397285;28;20048;-77
2022/04/28 22:31:00;;;;;;;22.15;14.05;;;;;;;;;;8397852;28;20094;-77
2022/04/28 22:35:04;;;;;;;24.67;14.50;;;;;;;;;;8397994;28;20495;-76
2022/04/28 22:39:08;;;;;;;21.95;13.93;;;;;;;;;;8398353;28;20052;-76
2022/04/28 22:43:12;;;;;;;22.65;13.60;;;;;;;;;;8398798;28;20075;-77
2022/04/28 22:47:15;;;;;;;21.50;13.10;;;;;;;;;;8398274;28;20048;-76
2022/04/28 22:51:18;;;;;;;22.38;13.02;;;;;;;;;;8396865;28;20047;-76
2022/04/28 22:55:20;;;;;;;23.42;13.93;;;;;;;;;;8397992;28;20048;-77
2022/04/28 22:59:25;;;;;;;19.00;10.77;;;;;;;;;;8398219;28;20479;-78
2022/04/28 23:03:27;;;;;;;20.55;12.00;;;;;;;;;;8397254;28;20048;-75
2022/04/28 23:07:33;;;;;;;22.83;12.73;;;;;;;;;;8394685;28;20044;-76
2022/04/28 23:11:36;;;;;;;21.63;11.48;;;;;;;;;;8396564;28;20056;-76
2022/04/28 23:15:42;;;;;;;19.27;11.68;;;;;;;;;;8394106;28;20048;-78
2022/04/28 23:19:45;;;;;;;17.10;10.77;;;;;;;;;;8397122;28;20045;-76
2022/04/28 23:23:52;;;;;;;16.42;10.38;;;;;;;;;;8393145;28;20045;-76
2022/04/28 23:27:55;;;;;;;21.33;11.57;;;;;;;;;;8395279;28;20044;-76
2022/04/28 23:31:59;;;;;;;22.15;12.68;;;;;;;;;;8396068;28;20557;-77
2022/04/28 23:40:21;;;;;;;18.88;11.50;;;;;;;;;;8390563;28;20049;-77
2022/04/28 23:44:23;;;;;;;21.40;11.43;;;;;;;;;;8396924;28;20048;-77
2022/04/28 23:48:27;;;;;;;18.45;10.77;;;;;;;;;;8396838;28;20056;-77
2022/04/28 23:56:46;;;;;;;16.95;10.13;;;;;;;;;;8396781;28;20049;-77
